sensor_id;sensor_type;location;lat;lon;timestamp;P1;durP1;ratioP1;P2;durP2;ratioP2
30149;SDS011;16962;48.646;9.026;2022-08-19T00:00:22;24.27;;;17.67;;
30149;SDS011;16962;48.646;9.026;2022-08-19T00:03:11;24.42;;;17.70;;
30149;SDS011;16962;48.646;9.026;2022-08-19T00:05:59;22.67;;;17.63;;
30149;SDS011;16962;48.646;9.026;2022-08-19T00:08:46;23.45;;;17.92;;
30149;SDS011;16962;48.646;9.026;2022-08-19T00:11:34;21.17;;;18.08;;
30149;SDS011;16962;48.646;9.026;2022-08-19T00:14:24;27.77;;;17.73;;
30149;SDS011;16962;48.646;9.026;2022-08-19T00:17:12;25.58;;;17.65;;
30149;SDS011;16962;48.646;9.026;2022-08-19T00:20:00;25.38;;;17.65;;
30149;SDS011;16962;48.646;9.026;2022-08-19T00:22:47;19.95;;;16.63;;
30149;SDS011;16962;48.646;9.026;2022-08-19T00:25:41;25.33;;;16.70;;
30149;SDS011;16962;48.646;9.026;2022-08-19T00:28:34;23.27;;;18.25;;
30149;SDS011;16962;48.646;9.026;2022-08-19T00:31:22;24.73;;;17.33;;
30149;SDS011;16962;48.646;9.026;2022-08-19T00:34:09;23.48;;;17.92;;
30149;SDS011;16962;48.646;9.026;2022-08-19T00:36:58;26.38;;;18.70;;
30149;SDS011;16962;48.646;9.026;2022-08-19T00:39:46;27.08;;;19.35;;
30149;SDS011;16962;48.646;9.026;2022-08-19T00:42:34;25.05;;;18.92;;
30149;SDS011;16962;48.646;9.026;2022-08-19T00:45:23;27.88;;;20.55;;
30149;SDS011;16962;48.646;9.026;2022-08-19T00:48:12;28.75;;;20.77;;
30149;SDS011;16962;48.646;9.026;2022-08-19T00:51:00;28.08;;;20.50;;
30149;SDS011;16962;48.646;9.026;2022-08-19T00:53:50;29.42;;;21.67;;
30149;SDS011;16962;48.646;9.026;2022-08-19T00:56:38;30.88;;;21.52;;
30149;SDS011;16962;48.646;9.026;2022-08-19T00:59:28;32.05;;;22.45;;
30149;SDS011;16962;48.646;9.026;2022-08-19T01:02:35;30.08;;;22.48;;
30149;SDS011;16962;48.646;9.026;2022-08-19T01:05:24;30.23;;;22.65;;
30149;SDS011;16962;48.646;9.026;2022-08-19T01:08:14;31.95;;;23.38;;
30149;SDS011;16962;48.646;9.026;2022-08-19T01:11:03;32.22;;;24.75;;
30149;SDS011;16962;48.646;9.026;2022-08-19T01:13:52;34.65;;;23.83;;
30149;SDS011;16962;48.646;9.026;2022-08-19T01:16:39;36.60;;;25.10;;
30149;SDS011;16962;48.646;9.026;2022-08-19T01:19:39;33.45;;;23.77;;
30149;SDS011;16962;48.646;9.026;2022-08-19T01:22:42;32.70;;;24.25;;
30149;SDS011;16962;48.646;9.026;2022-08-19T01:25:36;35.47;;;24.67;;
30149;SDS011;16962;48.646;9.026;2022-08-19T01:28:30;31.58;;;22.98;;
30149;SDS011;16962;48.646;9.026;2022-08-19T01:31:21;32.42;;;24.15;;
30149;SDS011;16962;48.646;9.026;2022-08-19T01:34:13;34.58;;;24.17;;
30149;SDS011;16962;48.646;9.026;2022-08-19T01:37:00;37.15;;;25.23;;
30149;SDS011;16962;48.646;9.026;2022-08-19T01:39:54;35.08;;;24.45;;
30149;SDS011;16962;48.646;9.026;2022-08-19T01:42:47;34.65;;;25.45;;
30149;SDS011;16962;48.646;9.026;2022-08-19T01:45:37;37.78;;;25.27;;
30149;SDS011;16962;48.646;9.026;2022-08-19T01:48:26;38.35;;;25.65;;
30149;SDS011;16962;48.646;9.026;2022-08-19T01:51:15;36.83;;;25.15;;
30149;SDS011;16962;48.646;9.026;2022-08-19T01:54:02;34.83;;;24.58;;
30149;SDS011;16962;48.646;9.026;2022-08-19T01:56:53;35.42;;;25.45;;
30149;SDS011;16962;48.646;9.026;2022-08-19T01:59:52;37.50;;;25.42;;
30149;SDS011;16962;48.646;9.026;2022-08-19T02:02:40;32.92;;;24.65;;
30149;SDS011;16962;48.646;9.026;2022-08-19T02:05:29;32.83;;;24.00;;
30149;SDS011;16962;48.646;9.026;2022-08-19T02:08:16;32.33;;;23.77;;
30149;SDS011;16962;48.646;9.026;2022-08-19T02:11:04;32.47;;;24.98;;
30149;SDS011;16962;48.646;9.026;2022-08-19T02:13:54;33.38;;;23.52;;
30149;SDS011;16962;48.646;9.026;2022-08-19T02:16:41;35.42;;;24.77;;
30149;SDS011;16962;48.646;9.026;2022-08-19T02:19:29;32.03;;;24.52;;
30149;SDS011;16962;48.646;9.026;2022-08-19T02:22:18;34.10;;;24.20;;
30149;SDS011;16962;48.646;9.026;2022-08-19T02:25:12;34.67;;;25.95;;
30149;SDS011;16962;48.646;9.026;2022-08-19T02:28:00;35.13;;;25.50;;
30149;SDS011;16962;48.646;9.026;2022-08-19T02:30:47;32.13;;;24.17;;
30149;SDS011;16962;48.646;9.026;2022-08-19T02:33:35;33.60;;;25.13;;
30149;SDS011;16962;48.646;9.026;2022-08-19T02:36:23;34.25;;;25.35;;
30149;SDS011;16962;48.646;9.026;2022-08-19T02:39:15;39.13;;;26.02;;
30149;SDS011;16962;48.646;9.026;2022-08-19T02:42:02;33.63;;;24.38;;
30149;SDS011;16962;48.646;9.026;2022-08-19T02:44:50;33.78;;;24.45;;
30149;SDS011;16962;48.646;9.026;2022-08-19T02:47:38;36.75;;;25.45;;
30149;SDS011;16962;48.646;9.026;2022-08-19T02:50:25;32.97;;;24.58;;
30149;SDS011;16962;48.646;9.026;2022-08-19T02:53:12;37.90;;;25.90;;
30149;SDS011;16962;48.646;9.026;2022-08-19T02:56:00;36.35;;;26.15;;
30149;SDS011;16962;48.646;9.026;2022-08-19T02:58:53;35.03;;;26.20;;
30149;SDS011;16962;48.646;9.026;2022-08-19T03:01:41;38.88;;;26.38;;
30149;SDS011;16962;48.646;9.026;2022-08-19T03:04:29;34.08;;;26.23;;
30149;SDS011;16962;48.646;9.026;2022-08-19T03:07:18;35.22;;;25.20;;
30149;SDS011;16962;48.646;9.026;2022-08-19T03:10:06;39.08;;;26.88;;
30149;SDS011;16962;48.646;9.026;2022-08-19T03:12:53;36.88;;;26.35;;
30149;SDS011;16962;48.646;9.026;2022-08-19T03:15:43;36.08;;;25.92;;
30149;SDS011;16962;48.646;9.026;2022-08-19T03:18:34;37.28;;;27.15;;
30149;SDS011;16962;48.646;9.026;2022-08-19T03:21:23;33.95;;;25.58;;
30149;SDS011;16962;48.646;9.026;2022-08-19T03:24:19;38.95;;;27.45;;
30149;SDS011;16962;48.646;9.026;2022-08-19T03:27:07;35.28;;;27.02;;
30149;SDS011;16962;48.646;9.026;2022-08-19T03:29:54;36.08;;;25.95;;
30149;SDS011;16962;48.646;9.026;2022-08-19T03:32:44;33.78;;;25.45;;
30149;SDS011;16962;48.646;9.026;2022-08-19T03:35:42;41.38;;;28.45;;
30149;SDS011;16962;48.646;9.026;2022-08-19T03:38:31;36.72;;;27.42;;
30149;SDS011;16962;48.646;9.026;2022-08-19T03:41:22;34.58;;;26.63;;
30149;SDS011;16962;48.646;9.026;2022-08-19T03:44:29;39.05;;;28.25;;
30149;SDS011;16962;48.646;9.026;2022-08-19T03:47:18;36.40;;;27.65;;
30149;SDS011;16962;48.646;9.026;2022-08-19T03:50:06;41.22;;;29.17;;
30149;SDS011;16962;48.646;9.026;2022-08-19T03:52:55;38.10;;;29.30;;
30149;SDS011;16962;48.646;9.026;2022-08-19T03:55:42;46.35;;;33.58;;
30149;SDS011;16962;48.646;9.026;2022-08-19T03:58:29;43.45;;;31.55;;
30149;SDS011;16962;48.646;9.026;2022-08-19T04:01:21;51.78;;;32.50;;
30149;SDS011;16962;48.646;9.026;2022-08-19T04:04:18;41.65;;;30.33;;
30149;SDS011;16962;48.646;9.026;2022-08-19T04:07:08;46.75;;;33.17;;
30149;SDS011;16962;48.646;9.026;2022-08-19T04:09:56;47.83;;;32.83;;
30149;SDS011;16962;48.646;9.026;2022-08-19T04:12:43;45.58;;;33.85;;
30149;SDS011;16962;48.646;9.026;2022-08-19T04:15:41;43.45;;;32.67;;
30149;SDS011;16962;48.646;9.026;2022-08-19T04:18:33;45.13;;;33.67;;
30149;SDS011;16962;48.646;9.026;2022-08-19T04:21:24;44.60;;;33.08;;
30149;SDS011;16962;48.646;9.026;2022-08-19T04:24:13;45.15;;;34.10;;
30149;SDS011;16962;48.646;9.026;2022-08-19T04:27:01;45.45;;;33.58;;
30149;SDS011;16962;48.646;9.026;2022-08-19T04:29:49;46.45;;;33.67;;
30149;SDS011;16962;48.646;9.026;2022-08-19T04:32:37;45.97;;;33.17;;
30149;SDS011;16962;48.646;9.026;2022-08-19T04:35:27;44.00;;;33.05;;
30149;SDS011;16962;48.646;9.026;2022-08-19T04:38:18;46.90;;;32.88;;
30149;SDS011;16962;48.646;9.026;2022-08-19T04:41:09;46.35;;;33.92;;
30149;SDS011;16962;48.646;9.026;2022-08-19T04:44:17;48.83;;;34.30;;
30149;SDS011;16962;48.646;9.026;2022-08-19T04:47:07;47.75;;;34.13;;
30149;SDS011;16962;48.646;9.026;2022-08-19T04:49:57;46.53;;;33.40;;
30149;SDS011;16962;48.646;9.026;2022-08-19T04:52:44;45.38;;;32.42;;
30149;SDS011;16962;48.646;9.026;2022-08-19T04:55:31;49.10;;;34.83;;
30149;SDS011;16962;48.646;9.026;2022-08-19T04:58:24;47.30;;;34.28;;
30149;SDS011;16962;48.646;9.026;2022-08-19T05:01:13;44.33;;;33.08;;
30149;SDS011;16962;48.646;9.026;2022-08-19T05:04:04;47.10;;;34.22;;
30149;SDS011;16962;48.646;9.026;2022-08-19T05:06:52;48.83;;;33.83;;
30149;SDS011;16962;48.646;9.026;2022-08-19T05:09:49;46.30;;;34.45;;
30149;SDS011;16962;48.646;9.026;2022-08-19T05:12:44;45.35;;;32.78;;
30149;SDS011;16962;48.646;9.026;2022-08-19T05:15:31;44.13;;;33.13;;
30149;SDS011;16962;48.646;9.026;2022-08-19T05:18:21;45.92;;;33.60;;
30149;SDS011;16962;48.646;9.026;2022-08-19T05:21:26;42.53;;;32.55;;
30149;SDS011;16962;48.646;9.026;2022-08-19T05:24:35;43.42;;;32.00;;
30149;SDS011;16962;48.646;9.026;2022-08-19T05:27:45;43.97;;;33.63;;
30149;SDS011;16962;48.646;9.026;2022-08-19T05:30:33;43.97;;;32.30;;
30149;SDS011;16962;48.646;9.026;2022-08-19T05:33:33;49.85;;;34.92;;
30149;SDS011;16962;48.646;9.026;2022-08-19T05:36:22;45.17;;;32.42;;
30149;SDS011;16962;48.646;9.026;2022-08-19T05:39:10;45.53;;;33.45;;
30149;SDS011;16962;48.646;9.026;2022-08-19T05:42:06;46.20;;;33.13;;
30149;SDS011;16962;48.646;9.026;2022-08-19T05:44:54;49.22;;;34.33;;
30149;SDS011;16962;48.646;9.026;2022-08-19T05:47:42;46.15;;;33.78;;
30149;SDS011;16962;48.646;9.026;2022-08-19T05:50:29;45.30;;;32.92;;
30149;SDS011;16962;48.646;9.026;2022-08-19T05:53:17;42.20;;;30.77;;
30149;SDS011;16962;48.646;9.026;2022-08-19T05:56:07;43.78;;;31.45;;
30149;SDS011;16962;48.646;9.026;2022-08-19T05:58:59;42.75;;;31.95;;
30149;SDS011;16962;48.646;9.026;2022-08-19T06:01:47;41.65;;;30.92;;
30149;SDS011;16962;48.646;9.026;2022-08-19T06:04:38;48.70;;;32.90;;
30149;SDS011;16962;48.646;9.026;2022-08-19T06:07:29;45.30;;;31.85;;
30149;SDS011;16962;48.646;9.026;2022-08-19T06:10:16;41.92;;;31.45;;
30149;SDS011;16962;48.646;9.026;2022-08-19T06:13:03;43.33;;;31.58;;
30149;SDS011;16962;48.646;9.026;2022-08-19T06:15:52;41.92;;;31.63;;
30149;SDS011;16962;48.646;9.026;2022-08-19T06:18:39;39.22;;;30.45;;
30149;SDS011;16962;48.646;9.026;2022-08-19T06:21:27;42.13;;;31.83;;
30149;SDS011;16962;48.646;9.026;2022-08-19T06:24:18;45.92;;;32.67;;
30149;SDS011;16962;48.646;9.026;2022-08-19T06:27:09;46.05;;;32.58;;
30149;SDS011;16962;48.646;9.026;2022-08-19T06:29:57;42.38;;;31.17;;
30149;SDS011;16962;48.646;9.026;2022-08-19T06:32:46;46.65;;;31.50;;
30149;SDS011;16962;48.646;9.026;2022-08-19T06:35:40;38.08;;;30.02;;
30149;SDS011;16962;48.646;9.026;2022-08-19T06:38:28;42.80;;;31.10;;
30149;SDS011;16962;48.646;9.026;2022-08-19T06:41:15;44.38;;;31.70;;
30149;SDS011;16962;48.646;9.026;2022-08-19T06:44:03;41.67;;;31.65;;
30149;SDS011;16962;48.646;9.026;2022-08-19T06:46:50;38.55;;;30.27;;
30149;SDS011;16962;48.646;9.026;2022-08-19T06:49:40;39.58;;;29.02;;
30149;SDS011;16962;48.646;9.026;2022-08-19T06:52:31;37.70;;;28.67;;
30149;SDS011;16962;48.646;9.026;2022-08-19T06:55:22;41.35;;;30.92;;
30149;SDS011;16962;48.646;9.026;2022-08-19T06:58:09;37.15;;;29.25;;
30149;SDS011;16962;48.646;9.026;2022-08-19T07:00:58;36.58;;;27.58;;
30149;SDS011;16962;48.646;9.026;2022-08-19T07:03:54;37.45;;;29.42;;
30149;SDS011;16962;48.646;9.026;2022-08-19T07:06:43;42.00;;;29.58;;
30149;SDS011;16962;48.646;9.026;2022-08-19T07:09:42;39.80;;;29.38;;
30149;SDS011;16962;48.646;9.026;2022-08-19T07:12:43;35.67;;;28.40;;
30149;SDS011;16962;48.646;9.026;2022-08-19T07:15:35;37.25;;;27.08;;
30149;SDS011;16962;48.646;9.026;2022-08-19T07:18:25;35.10;;;26.00;;
30149;SDS011;16962;48.646;9.026;2022-08-19T07:21:14;38.53;;;26.13;;
30149;SDS011;16962;48.646;9.026;2022-08-19T07:24:03;33.40;;;25.65;;
30149;SDS011;16962;48.646;9.026;2022-08-19T07:26:53;31.95;;;26.45;;
30149;SDS011;16962;48.646;9.026;2022-08-19T07:29:43;31.50;;;23.60;;
30149;SDS011;16962;48.646;9.026;2022-08-19T07:32:45;31.90;;;25.43;;
30149;SDS011;16962;48.646;9.026;2022-08-19T07:35:36;29.92;;;22.75;;
30149;SDS011;16962;48.646;9.026;2022-08-19T07:38:23;30.35;;;23.65;;
30149;SDS011;16962;48.646;9.026;2022-08-19T07:41:14;31.00;;;25.10;;
30149;SDS011;16962;48.646;9.026;2022-08-19T07:44:08;31.20;;;24.33;;
30149;SDS011;16962;48.646;9.026;2022-08-19T07:46:57;31.48;;;23.45;;
30149;SDS011;16962;48.646;9.026;2022-08-19T07:49:47;30.23;;;23.63;;
30149;SDS011;16962;48.646;9.026;2022-08-19T07:52:35;33.15;;;24.65;;
30149;SDS011;16962;48.646;9.026;2022-08-19T07:55:25;30.92;;;25.15;;
30149;SDS011;16962;48.646;9.026;2022-08-19T07:58:29;30.40;;;24.30;;
30149;SDS011;16962;48.646;9.026;2022-08-19T08:01:20;32.65;;;25.17;;
30149;SDS011;16962;48.646;9.026;2022-08-19T08:04:11;34.65;;;24.27;;
30149;SDS011;16962;48.646;9.026;2022-08-19T08:07:18;35.83;;;26.55;;
30149;SDS011;16962;48.646;9.026;2022-08-19T08:10:31;30.08;;;24.63;;
30149;SDS011;16962;48.646;9.026;2022-08-19T08:13:19;31.95;;;24.90;;
30149;SDS011;16962;48.646;9.026;2022-08-19T08:16:07;30.95;;;24.73;;
30149;SDS011;16962;48.646;9.026;2022-08-19T08:18:55;37.53;;;25.02;;
30149;SDS011;16962;48.646;9.026;2022-08-19T08:21:43;32.78;;;24.58;;
30149;SDS011;16962;48.646;9.026;2022-08-19T08:24:30;35.38;;;27.33;;
30149;SDS011;16962;48.646;9.026;2022-08-19T08:27:20;37.05;;;28.27;;
30149;SDS011;16962;48.646;9.026;2022-08-19T08:30:14;33.05;;;25.52;;
30149;SDS011;16962;48.646;9.026;2022-08-19T08:33:08;36.40;;;25.58;;
30149;SDS011;16962;48.646;9.026;2022-08-19T08:35:56;29.65;;;24.13;;
30149;SDS011;16962;48.646;9.026;2022-08-19T08:38:43;31.92;;;24.77;;
30149;SDS011;16962;48.646;9.026;2022-08-19T08:44:59;31.23;;;23.00;;
30149;SDS011;16962;48.646;9.026;2022-08-19T08:47:51;31.13;;;23.52;;
30149;SDS011;16962;48.646;9.026;2022-08-19T08:50:42;31.00;;;23.25;;
30149;SDS011;16962;48.646;9.026;2022-08-19T08:53:39;32.58;;;24.73;;
30149;SDS011;16962;48.646;9.026;2022-08-19T08:56:28;34.65;;;25.95;;
30149;SDS011;16962;48.646;9.026;2022-08-19T08:59:20;40.72;;;27.40;;
30149;SDS011;16962;48.646;9.026;2022-08-19T09:02:14;42.30;;;29.67;;
30149;SDS011;16962;48.646;9.026;2022-08-19T09:05:02;35.53;;;30.00;;
30149;SDS011;16962;48.646;9.026;2022-08-19T09:10:49;37.97;;;28.17;;
30149;SDS011;16962;48.646;9.026;2022-08-19T09:16:36;40.78;;;30.40;;
30149;SDS011;16962;48.646;9.026;2022-08-19T09:19:26;34.63;;;27.90;;
30149;SDS011;16962;48.646;9.026;2022-08-19T09:22:15;33.80;;;27.13;;
30149;SDS011;16962;48.646;9.026;2022-08-19T09:25:16;31.25;;;26.23;;
30149;SDS011;16962;48.646;9.026;2022-08-19T09:28:15;31.02;;;25.77;;
30149;SDS011;16962;48.646;9.026;2022-08-19T09:31:13;37.72;;;27.55;;
30149;SDS011;16962;48.646;9.026;2022-08-19T09:34:03;32.75;;;26.17;;
30149;SDS011;16962;48.646;9.026;2022-08-19T09:36:52;38.35;;;26.90;;
30149;SDS011;16962;48.646;9.026;2022-08-19T09:39:41;32.53;;;26.88;;
30149;SDS011;16962;48.646;9.026;2022-08-19T09:42:29;35.90;;;26.23;;
30149;SDS011;16962;48.646;9.026;2022-08-19T09:45:21;40.00;;;27.17;;
30149;SDS011;16962;48.646;9.026;2022-08-19T09:48:08;36.45;;;27.13;;
30149;SDS011;16962;48.646;9.026;2022-08-19T09:51:10;37.28;;;26.08;;
30149;SDS011;16962;48.646;9.026;2022-08-19T09:54:03;32.53;;;26.60;;
30149;SDS011;16962;48.646;9.026;2022-08-19T09:56:55;33.28;;;24.65;;
30149;SDS011;16962;48.646;9.026;2022-08-19T09:59:50;29.25;;;23.75;;
30149;SDS011;16962;48.646;9.026;2022-08-19T10:02:37;30.42;;;24.50;;
30149;SDS011;16962;48.646;9.026;2022-08-19T10:05:25;28.77;;;23.63;;
30149;SDS011;16962;48.646;9.026;2022-08-19T10:08:35;31.42;;;23.50;;
30149;SDS011;16962;48.646;9.026;2022-08-19T10:11:25;30.20;;;23.98;;
30149;SDS011;16962;48.646;9.026;2022-08-19T10:14:25;27.80;;;22.33;;
30149;SDS011;16962;48.646;9.026;2022-08-19T10:17:12;29.33;;;22.67;;
30149;SDS011;16962;48.646;9.026;2022-08-19T10:20:06;32.30;;;21.80;;
30149;SDS011;16962;48.646;9.026;2022-08-19T10:22:54;32.88;;;22.15;;
30149;SDS011;16962;48.646;9.026;2022-08-19T10:25:47;27.30;;;20.42;;
30149;SDS011;16962;48.646;9.026;2022-08-19T10:28:36;28.35;;;20.08;;
30149;SDS011;16962;48.646;9.026;2022-08-19T10:31:33;31.20;;;20.85;;
30149;SDS011;16962;48.646;9.026;2022-08-19T10:34:41;26.65;;;19.85;;
30149;SDS011;16962;48.646;9.026;2022-08-19T10:37:35;22.85;;;18.52;;
30149;SDS011;16962;48.646;9.026;2022-08-19T10:40:43;22.77;;;18.65;;
30149;SDS011;16962;48.646;9.026;2022-08-19T10:43:32;22.88;;;17.25;;
30149;SDS011;16962;48.646;9.026;2022-08-19T10:46:22;17.52;;;15.65;;
30149;SDS011;16962;48.646;9.026;2022-08-19T10:49:10;21.20;;;15.77;;
30149;SDS011;16962;48.646;9.026;2022-08-19T10:51:58;21.02;;;15.45;;
30149;SDS011;16962;48.646;9.026;2022-08-19T10:55:09;23.98;;;14.55;;
30149;SDS011;16962;48.646;9.026;2022-08-19T10:58:17;16.20;;;13.15;;
30149;SDS011;16962;48.646;9.026;2022-08-19T11:01:10;14.63;;;11.75;;
30149;SDS011;16962;48.646;9.026;2022-08-19T11:04:00;17.98;;;11.95;;
30149;SDS011;16962;48.646;9.026;2022-08-19T11:06:49;14.70;;;12.20;;
30149;SDS011;16962;48.646;9.026;2022-08-19T11:09:37;16.55;;;12.25;;
30149;SDS011;16962;48.646;9.026;2022-08-19T11:12:27;20.17;;;10.45;;
30149;SDS011;16962;48.646;9.026;2022-08-19T11:15:14;18.10;;;11.60;;
30149;SDS011;16962;48.646;9.026;2022-08-19T11:18:02;18.33;;;11.48;;
30149;SDS011;16962;48.646;9.026;2022-08-19T11:20:49;12.38;;;10.77;;
30149;SDS011;16962;48.646;9.026;2022-08-19T11:23:37;13.93;;;11.05;;
30149;SDS011;16962;48.646;9.026;2022-08-19T11:26:25;14.63;;;11.75;;
30149;SDS011;16962;48.646;9.026;2022-08-19T11:29:13;12.02;;;10.73;;
30149;SDS011;16962;48.646;9.026;2022-08-19T11:32:06;15.70;;;11.25;;
30149;SDS011;16962;48.646;9.026;2022-08-19T11:34:56;17.40;;;11.73;;
30149;SDS011;16962;48.646;9.026;2022-08-19T11:37:43;14.20;;;11.35;;
30149;SDS011;16962;48.646;9.026;2022-08-19T11:40:30;12.98;;;11.07;;
30149;SDS011;16962;48.646;9.026;2022-08-19T11:43:17;12.10;;;10.88;;
30149;SDS011;16962;48.646;9.026;2022-08-19T11:46:08;16.38;;;10.07;;
30149;SDS011;16962;48.646;9.026;2022-08-19T11:48:59;13.90;;;10.38;;
30149;SDS011;16962;48.646;9.026;2022-08-19T11:51:48;13.07;;;10.57;;
30149;SDS011;16962;48.646;9.026;2022-08-19T11:54:39;11.80;;;10.18;;
30149;SDS011;16962;48.646;9.026;2022-08-19T11:57:26;13.95;;;12.05;;
30149;SDS011;16962;48.646;9.026;2022-08-19T12:00:13;14.05;;;11.00;;
30149;SDS011;16962;48.646;9.026;2022-08-19T12:03:01;13.68;;;10.85;;
30149;SDS011;16962;48.646;9.026;2022-08-19T12:05:50;12.52;;;10.65;;
30149;SDS011;16962;48.646;9.026;2022-08-19T12:08:37;12.02;;;10.27;;
30149;SDS011;16962;48.646;9.026;2022-08-19T12:11:25;16.83;;;11.40;;
30149;SDS011;16962;48.646;9.026;2022-08-19T12:14:20;13.70;;;9.70;;
30149;SDS011;16962;48.646;9.026;2022-08-19T12:17:11;12.25;;;9.50;;
30149;SDS011;16962;48.646;9.026;2022-08-19T12:20:02;19.63;;;9.65;;
30149;SDS011;16962;48.646;9.026;2022-08-19T12:22:52;13.98;;;9.55;;
30149;SDS011;16962;48.646;9.026;2022-08-19T12:25:43;12.20;;;9.80;;
30149;SDS011;16962;48.646;9.026;2022-08-19T12:28:38;12.13;;;9.05;;
30149;SDS011;16962;48.646;9.026;2022-08-19T12:31:28;13.35;;;8.98;;
30149;SDS011;16962;48.646;9.026;2022-08-19T12:34:18;13.95;;;8.73;;
30149;SDS011;16962;48.646;9.026;2022-08-19T12:37:09;13.07;;;8.60;;
30149;SDS011;16962;48.646;9.026;2022-08-19T12:39:59;11.93;;;8.77;;
30149;SDS011;16962;48.646;9.026;2022-08-19T12:42:46;9.68;;;8.38;;
30149;SDS011;16962;48.646;9.026;2022-08-19T12:45:36;9.55;;;7.55;;
30149;SDS011;16962;48.646;9.026;2022-08-19T12:48:28;9.18;;;7.65;;
30149;SDS011;16962;48.646;9.026;2022-08-19T12:51:20;10.75;;;8.15;;
30149;SDS011;16962;48.646;9.026;2022-08-19T12:54:07;9.02;;;7.32;;
30149;SDS011;16962;48.646;9.026;2022-08-19T12:56:55;8.68;;;7.00;;
30149;SDS011;16962;48.646;9.026;2022-08-19T12:59:42;12.35;;;7.32;;
30149;SDS011;16962;48.646;9.026;2022-08-19T13:02:29;12.27;;;7.47;;
30149;SDS011;16962;48.646;9.026;2022-08-19T13:05:29;9.77;;;7.35;;
30149;SDS011;16962;48.646;9.026;2022-08-19T13:08:19;7.70;;;6.78;;
30149;SDS011;16962;48.646;9.026;2022-08-19T13:11:10;10.90;;;6.65;;
30149;SDS011;16962;48.646;9.026;2022-08-19T13:14:03;8.95;;;6.72;;
30149;SDS011;16962;48.646;9.026;2022-08-19T13:16:54;8.73;;;7.10;;
30149;SDS011;16962;48.646;9.026;2022-08-19T13:19:41;8.57;;;6.38;;
30149;SDS011;16962;48.646;9.026;2022-08-19T13:22:28;7.78;;;7.00;;
30149;SDS011;16962;48.646;9.026;2022-08-19T13:25:16;8.55;;;6.70;;
30149;SDS011;16962;48.646;9.026;2022-08-19T13:28:05;7.18;;;6.40;;
30149;SDS011;16962;48.646;9.026;2022-08-19T13:30:53;7.32;;;6.15;;
30149;SDS011;16962;48.646;9.026;2022-08-19T13:33:59;7.88;;;6.45;;
30149;SDS011;16962;48.646;9.026;2022-08-19T13:36:46;8.00;;;6.90;;
30149;SDS011;16962;48.646;9.026;2022-08-19T13:39:35;9.15;;;8.20;;
30149;SDS011;16962;48.646;9.026;2022-08-19T13:42:23;23.20;;;20.52;;
30149;SDS011;16962;48.646;9.026;2022-08-19T13:45:10;23.33;;;20.88;;
30149;SDS011;16962;48.646;9.026;2022-08-19T13:48:02;22.05;;;19.55;;
30149;SDS011;16962;48.646;9.026;2022-08-19T13:50:54;22.73;;;20.02;;
30149;SDS011;16962;48.646;9.026;2022-08-19T13:53:45;26.05;;;20.70;;
30149;SDS011;16962;48.646;9.026;2022-08-19T13:56:35;21.92;;;19.25;;
30149;SDS011;16962;48.646;9.026;2022-08-19T13:59:30;21.77;;;19.50;;
30149;SDS011;16962;48.646;9.026;2022-08-19T14:02:17;20.88;;;17.58;;
30149;SDS011;16962;48.646;9.026;2022-08-19T14:05:06;23.17;;;19.70;;
30149;SDS011;16962;48.646;9.026;2022-08-19T14:07:55;23.85;;;19.80;;
30149;SDS011;16962;48.646;9.026;2022-08-19T14:10:43;25.05;;;19.45;;
30149;SDS011;16962;48.646;9.026;2022-08-19T14:13:33;20.52;;;18.10;;
30149;SDS011;16962;48.646;9.026;2022-08-19T14:16:20;19.75;;;17.02;;
30149;SDS011;16962;48.646;9.026;2022-08-19T14:19:11;22.13;;;17.88;;
30149;SDS011;16962;48.646;9.026;2022-08-19T14:21:58;22.40;;;19.08;;
30149;SDS011;16962;48.646;9.026;2022-08-19T14:24:45;21.20;;;18.52;;
30149;SDS011;16962;48.646;9.026;2022-08-19T14:27:35;22.20;;;19.55;;
30149;SDS011;16962;48.646;9.026;2022-08-19T14:30:30;25.85;;;21.63;;
30149;SDS011;16962;48.646;9.026;2022-08-19T14:33:20;23.85;;;21.30;;
30149;SDS011;16962;48.646;9.026;2022-08-19T14:36:16;22.90;;;20.45;;
30149;SDS011;16962;48.646;9.026;2022-08-19T14:39:04;22.67;;;19.75;;
30149;SDS011;16962;48.646;9.026;2022-08-19T14:41:54;21.58;;;19.23;;
30149;SDS011;16962;48.646;9.026;2022-08-19T14:44:41;22.58;;;19.90;;
30149;SDS011;16962;48.646;9.026;2022-08-19T14:50:47;20.92;;;17.95;;
30149;SDS011;16962;48.646;9.026;2022-08-19T14:53:34;23.60;;;18.40;;
30149;SDS011;16962;48.646;9.026;2022-08-19T14:56:23;18.90;;;16.90;;
30149;SDS011;16962;48.646;9.026;2022-08-19T14:59:16;21.90;;;18.73;;
30149;SDS011;16962;48.646;9.026;2022-08-19T15:02:05;24.00;;;21.50;;
30149;SDS011;16962;48.646;9.026;2022-08-19T15:05:13;24.23;;;20.98;;
30149;SDS011;16962;48.646;9.026;2022-08-19T15:08:02;22.80;;;20.05;;
30149;SDS011;16962;48.646;9.026;2022-08-19T15:10:52;26.35;;;21.52;;
30149;SDS011;16962;48.646;9.026;2022-08-19T15:13:40;24.33;;;20.42;;
30149;SDS011;16962;48.646;9.026;2022-08-19T15:16:28;26.02;;;20.80;;
30149;SDS011;16962;48.646;9.026;2022-08-19T15:19:15;21.55;;;19.35;;
30149;SDS011;16962;48.646;9.026;2022-08-19T15:22:03;22.13;;;19.83;;
30149;SDS011;16962;48.646;9.026;2022-08-19T15:24:50;22.75;;;20.05;;
30149;SDS011;16962;48.646;9.026;2022-08-19T15:27:38;16.17;;;13.85;;
30149;SDS011;16962;48.646;9.026;2022-08-19T15:30:31;20.73;;;16.75;;
30149;SDS011;16962;48.646;9.026;2022-08-19T15:33:19;12.00;;;10.80;;
30149;SDS011;16962;48.646;9.026;2022-08-19T15:36:07;14.65;;;12.75;;
30149;SDS011;16962;48.646;9.026;2022-08-19T15:38:59;11.82;;;9.73;;
30149;SDS011;16962;48.646;9.026;2022-08-19T15:41:49;7.75;;;6.97;;
30149;SDS011;16962;48.646;9.026;2022-08-19T15:44:38;8.38;;;6.53;;
30149;SDS011;16962;48.646;9.026;2022-08-19T15:47:25;8.48;;;6.93;;
30149;SDS011;16962;48.646;9.026;2022-08-19T15:50:21;7.10;;;6.40;;
30149;SDS011;16962;48.646;9.026;2022-08-19T15:53:09;6.55;;;5.95;;
30149;SDS011;16962;48.646;9.026;2022-08-19T15:55:56;7.40;;;6.05;;
30149;SDS011;16962;48.646;9.026;2022-08-19T15:58:46;6.97;;;6.20;;
30149;SDS011;16962;48.646;9.026;2022-08-19T16:01:52;6.35;;;5.45;;
30149;SDS011;16962;48.646;9.026;2022-08-19T16:04:58;7.88;;;6.10;;
30149;SDS011;16962;48.646;9.026;2022-08-19T16:08:04;6.82;;;5.70;;
30149;SDS011;16962;48.646;9.026;2022-08-19T16:10:51;6.80;;;6.05;;
30149;SDS011;16962;48.646;9.026;2022-08-19T16:13:41;6.22;;;5.63;;
30149;SDS011;16962;48.646;9.026;2022-08-19T16:16:29;7.55;;;5.72;;
30149;SDS011;16962;48.646;9.026;2022-08-19T16:19:19;7.00;;;5.57;;
30149;SDS011;16962;48.646;9.026;2022-08-19T16:22:07;6.07;;;5.47;;
30149;SDS011;16962;48.646;9.026;2022-08-19T16:24:54;6.60;;;6.00;;
30149;SDS011;16962;48.646;9.026;2022-08-19T16:27:44;6.85;;;6.20;;
30149;SDS011;16962;48.646;9.026;2022-08-19T16:30:52;8.35;;;5.43;;
30149;SDS011;16962;48.646;9.026;2022-08-19T16:33:40;8.60;;;6.20;;
30149;SDS011;16962;48.646;9.026;2022-08-19T16:36:29;6.75;;;5.82;;
30149;SDS011;16962;48.646;9.026;2022-08-19T16:39:17;9.93;;;6.20;;
30149;SDS011;16962;48.646;9.026;2022-08-19T16:42:10;8.13;;;6.32;;
30149;SDS011;16962;48.646;9.026;2022-08-19T16:44:59;8.00;;;6.30;;
30149;SDS011;16962;48.646;9.026;2022-08-19T16:47:46;6.28;;;5.78;;
30149;SDS011;16962;48.646;9.026;2022-08-19T16:50:34;12.75;;;6.57;;
30149;SDS011;16962;48.646;9.026;2022-08-19T16:53:35;7.28;;;6.35;;
30149;SDS011;16962;48.646;9.026;2022-08-19T16:56:24;9.13;;;6.38;;